sensor_id;sensor_type;location;lat;lon;timestamp;pressure;altitude;pressure_sealevel;temperature
71205;BMP180;58935;54.498;18.544;2022-08-19T00:01:27;100272.40;;;22.40
71205;BMP180;58935;54.498;18.544;2022-08-19T00:03:57;100274.20;;;22.40
71205;BMP180;58935;54.498;18.544;2022-08-19T00:06:22;100267.60;;;22.42
71205;BMP180;58935;54.498;18.544;2022-08-19T00:08:48;100264.00;;;22.50
71205;BMP180;58935;54.498;18.544;2022-08-19T00:11:13;100258.20;;;22.50
71205;BMP180;58935;54.498;18.544;2022-08-19T00:13:39;100256.00;;;22.50
71205;BMP180;58935;54.498;18.544;2022-08-19T00:16:06;100257.20;;;22.50
71205;BMP180;58935;54.498;18.544;2022-08-19T00:18:33;100248.00;;;22.50
71205;BMP180;58935;54.498;18.544;2022-08-19T00:20:59;100250.40;;;22.44
71205;BMP180;58935;54.498;18.544;2022-08-19T00:23:26;100254.80;;;22.40
71205;BMP180;58935;54.498;18.544;2022-08-19T00:25:53;100256.60;;;22.44
71205;BMP180;58935;54.498;18.544;2022-08-19T00:28:19;100259.80;;;22.42
71205;BMP180;58935;54.498;18.544;2022-08-19T00:30:46;100264.60;;;22.40
71205;BMP180;58935;54.498;18.544;2022-08-19T00:33:11;100268.80;;;22.40
71205;BMP180;58935;54.498;18.544;2022-08-19T00:35:39;100268.80;;;22.42
71205;BMP180;58935;54.498;18.544;2022-08-19T00:38:05;100274.20;;;22.40
71205;BMP180;58935;54.498;18.544;2022-08-19T00:40:32;100277.80;;;22.44
71205;BMP180;58935;54.498;18.544;2022-08-19T00:42:58;100276.20;;;22.46
71205;BMP180;58935;54.498;18.544;2022-08-19T00:45:29;100276.20;;;22.46
71205;BMP180;58935;54.498;18.544;2022-08-19T00:47:56;100273.40;;;22.44
71205;BMP180;58935;54.498;18.544;2022-08-19T00:50:23;100278.40;;;22.50
71205;BMP180;58935;54.498;18.544;2022-08-19T00:52:51;100279.80;;;22.50
71205;BMP180;58935;54.498;18.544;2022-08-19T00:55:22;100281.20;;;22.50
71205;BMP180;58935;54.498;18.544;2022-08-19T00:57:56;100284.00;;;22.50
71205;BMP180;58935;54.498;18.544;2022-08-19T01:00:26;100284.80;;;22.52
71205;BMP180;58935;54.498;18.544;2022-08-19T01:02:52;100286.40;;;22.52
71205;BMP180;58935;54.498;18.544;2022-08-19T01:05:26;100286.60;;;22.50
71205;BMP180;58935;54.498;18.544;2022-08-19T01:07:54;100287.40;;;22.60
71205;BMP180;58935;54.498;18.544;2022-08-19T01:10:26;100288.20;;;22.60
71205;BMP180;58935;54.498;18.544;2022-08-19T01:12:54;100281.80;;;22.60
71205;BMP180;58935;54.498;18.544;2022-08-19T01:15:30;100283.20;;;22.60
71205;BMP180;58935;54.498;18.544;2022-08-19T01:18:00;100284.40;;;22.60
71205;BMP180;58935;54.498;18.544;2022-08-19T01:20:25;100282.00;;;22.60
71205;BMP180;58935;54.498;18.544;2022-08-19T01:22:57;100280.20;;;22.60
71205;BMP180;58935;54.498;18.544;2022-08-19T01:25:31;100279.60;;;22.60
71205;BMP180;58935;54.498;18.544;2022-08-19T01:27:57;100280.40;;;22.60
71205;BMP180;58935;54.498;18.544;2022-08-19T01:30:31;100281.40;;;22.60
71205;BMP180;58935;54.498;18.544;2022-08-19T01:32:58;100277.80;;;22.60
71205;BMP180;58935;54.498;18.544;2022-08-19T01:35:28;100278.00;;;22.60
71205;BMP180;58935;54.498;18.544;2022-08-19T01:37:59;100273.00;;;22.50
71205;BMP180;58935;54.498;18.544;2022-08-19T01:40:30;100271.40;;;22.50
71205;BMP180;58935;54.498;18.544;2022-08-19T01:42:57;100272.00;;;22.50
71205;BMP180;58935;54.498;18.544;2022-08-19T01:45:27;100276.20;;;22.44
71205;BMP180;58935;54.498;18.544;2022-08-19T01:47:53;100274.20;;;22.40
71205;BMP180;58935;54.498;18.544;2022-08-19T01:50:20;100277.40;;;22.40
71205;BMP180;58935;54.498;18.544;2022-08-19T01:52:46;100274.00;;;22.40
71205;BMP180;58935;54.498;18.544;2022-08-19T01:55:17;100277.80;;;22.40
71205;BMP180;58935;54.498;18.544;2022-08-19T01:57:51;100277.40;;;22.40
71205;BMP180;58935;54.498;18.544;2022-08-19T02:00:20;100279.60;;;22.30
71205;BMP180;58935;54.498;18.544;2022-08-19T02:02:47;100278.20;;;22.30
71205;BMP180;58935;54.498;18.544;2022-08-19T02:05:13;100279.40;;;22.30
71205;BMP180;58935;54.498;18.544;2022-08-19T02:07:40;100280.00;;;22.30
71205;BMP180;58935;54.498;18.544;2022-08-19T02:10:12;100276.60;;;22.30
71205;BMP180;58935;54.498;18.544;2022-08-19T02:12:39;100272.20;;;22.30
71205;BMP180;58935;54.498;18.544;2022-08-19T02:15:05;100273.00;;;22.30
71205;BMP180;58935;54.498;18.544;2022-08-19T02:17:32;100270.40;;;22.22
71205;BMP180;58935;54.498;18.544;2022-08-19T02:19:57;100275.40;;;22.20
71205;BMP180;58935;54.498;18.544;2022-08-19T02:22:25;100270.80;;;22.20
71205;BMP180;58935;54.498;18.544;2022-08-19T02:24:52;100272.20;;;22.20
71205;BMP180;58935;54.498;18.544;2022-08-19T02:27:18;100267.60;;;22.20
71205;BMP180;58935;54.498;18.544;2022-08-19T02:29:46;100271.40;;;22.20
71205;BMP180;58935;54.498;18.544;2022-08-19T02:32:13;100275.40;;;22.20
71205;BMP180;58935;54.498;18.544;2022-08-19T02:34:39;100274.60;;;22.20
71205;BMP180;58935;54.498;18.544;2022-08-19T02:37:04;100266.80;;;22.20
71205;BMP180;58935;54.498;18.544;2022-08-19T02:39:30;100264.20;;;22.20
71205;BMP180;58935;54.498;18.544;2022-08-19T02:41:55;100264.40;;;22.20
71205;BMP180;58935;54.498;18.544;2022-08-19T02:44:21;100264.00;;;22.20
71205;BMP180;58935;54.498;18.544;2022-08-19T02:46:48;100266.00;;;22.20
71205;BMP180;58935;54.498;18.544;2022-08-19T02:49:15;100263.40;;;22.10
71205;BMP180;58935;54.498;18.544;2022-08-19T02:51:45;100263.00;;;22.10
71205;BMP180;58935;54.498;18.544;2022-08-19T02:54:12;100263.40;;;22.00
71205;BMP180;58935;54.498;18.544;2022-08-19T02:56:40;100266.00;;;22.00
71205;BMP180;58935;54.498;18.544;2022-08-19T02:59:06;100266.20;;;22.00
71205;BMP180;58935;54.498;18.544;2022-08-19T03:01:34;100271.60;;;21.90
71205;BMP180;58935;54.498;18.544;2022-08-19T03:04:03;100273.20;;;21.90
71205;BMP180;58935;54.498;18.544;2022-08-19T03:06:30;100276.00;;;21.88
71205;BMP180;58935;54.498;18.544;2022-08-19T03:08:57;100268.80;;;21.90
71205;BMP180;58935;54.498;18.544;2022-08-19T03:11:27;100268.60;;;21.90
71205;BMP180;58935;54.498;18.544;2022-08-19T03:13:55;100273.80;;;21.90
71205;BMP180;58935;54.498;18.544;2022-08-19T03:16:24;100275.00;;;22.00
71205;BMP180;58935;54.498;18.544;2022-08-19T03:18:51;100276.80;;;22.00
71205;BMP180;58935;54.498;18.544;2022-08-19T03:21:22;100271.60;;;21.92
71205;BMP180;58935;54.498;18.544;2022-08-19T03:23:49;100271.00;;;21.90
71205;BMP180;58935;54.498;18.544;2022-08-19T03:26:16;100264.20;;;21.90
71205;BMP180;58935;54.498;18.544;2022-08-19T03:28:44;100267.40;;;21.90
71205;BMP180;58935;54.498;18.544;2022-08-19T03:31:18;100270.00;;;21.86
71205;BMP180;58935;54.498;18.544;2022-08-19T03:33:44;100268.20;;;21.90
71205;BMP180;58935;54.498;18.544;2022-08-19T03:36:17;100268.40;;;21.90
71205;BMP180;58935;54.498;18.544;2022-08-19T03:38:47;100271.00;;;21.90
71205;BMP180;58935;54.498;18.544;2022-08-19T03:41:18;100271.40;;;21.90
71205;BMP180;58935;54.498;18.544;2022-08-19T03:43:45;100273.20;;;21.90
71205;BMP180;58935;54.498;18.544;2022-08-19T03:46:17;100272.20;;;22.00
71205;BMP180;58935;54.498;18.544;2022-08-19T03:48:44;100274.40;;;22.00
71205;BMP180;58935;54.498;18.544;2022-08-19T03:51:17;100276.00;;;22.00
71205;BMP180;58935;54.498;18.544;2022-08-19T03:53:43;100271.80;;;22.00
71205;BMP180;58935;54.498;18.544;2022-08-19T03:56:10;100271.80;;;22.06
71205;BMP180;58935;54.498;18.544;2022-08-19T03:58:36;100271.20;;;22.10
71205;BMP180;58935;54.498;18.544;2022-08-19T04:01:08;100274.20;;;22.08
71205;BMP180;58935;54.498;18.544;2022-08-19T04:03:34;100273.00;;;22.00
71205;BMP180;58935;54.498;18.544;2022-08-19T04:06:16;100277.60;;;22.10
71205;BMP180;58935;54.498;18.544;2022-08-19T04:08:45;100277.20;;;22.10
71205;BMP180;58935;54.498;18.544;2022-08-19T04:11:15;100276.60;;;22.20
71205;BMP180;58935;54.498;18.544;2022-08-19T04:13:41;100274.80;;;22.20
71205;BMP180;58935;54.498;18.544;2022-08-19T04:16:09;100274.20;;;22.30
71205;BMP180;58935;54.498;18.544;2022-08-19T04:18:37;100281.00;;;22.30
71205;BMP180;58935;54.498;18.544;2022-08-19T04:21:04;100282.60;;;22.30
71205;BMP180;58935;54.498;18.544;2022-08-19T04:23:31;100283.80;;;22.40
71205;BMP180;58935;54.498;18.544;2022-08-19T04:25:57;100282.60;;;22.40
71205;BMP180;58935;54.498;18.544;2022-08-19T04:28:24;100285.00;;;22.40
71205;BMP180;58935;54.498;18.544;2022-08-19T04:30:53;100286.40;;;22.40
71205;BMP180;58935;54.498;18.544;2022-08-19T04:33:22;100288.60;;;22.40
71205;BMP180;58935;54.498;18.544;2022-08-19T04:35:51;100286.40;;;22.40
71205;BMP180;58935;54.498;18.544;2022-08-19T04:38:20;100285.00;;;22.44
71205;BMP180;58935;54.498;18.544;2022-08-19T04:40:50;100280.00;;;22.50
71205;BMP180;58935;54.498;18.544;2022-08-19T04:43:19;100274.60;;;22.60
71205;BMP180;58935;54.498;18.544;2022-08-19T04:45:45;100275.80;;;22.62
71205;BMP180;58935;54.498;18.544;2022-08-19T04:48:12;100280.40;;;22.70
71205;BMP180;58935;54.498;18.544;2022-08-19T04:50:43;100280.40;;;22.70
71205;BMP180;58935;54.498;18.544;2022-08-19T04:53:09;100278.00;;;22.80
71205;BMP180;58935;54.498;18.544;2022-08-19T04:55:40;100285.60;;;22.82
71205;BMP180;58935;54.498;18.544;2022-08-19T04:58:05;100282.40;;;22.90
71205;BMP180;58935;54.498;18.544;2022-08-19T05:00:31;100281.80;;;23.00
71205;BMP180;58935;54.498;18.544;2022-08-19T05:02:57;100279.80;;;23.04
71205;BMP180;58935;54.498;18.544;2022-08-19T05:05:22;100282.40;;;23.10
71205;BMP180;58935;54.498;18.544;2022-08-19T05:07:48;100287.60;;;23.20
71205;BMP180;58935;54.498;18.544;2022-08-19T05:10:13;100294.60;;;23.20
71205;BMP180;58935;54.498;18.544;2022-08-19T05:12:38;100289.60;;;23.30
71205;BMP180;58935;54.498;18.544;2022-08-19T05:15:06;100287.00;;;23.40
71205;BMP180;58935;54.498;18.544;2022-08-19T05:17:34;100287.20;;;23.40
71205;BMP180;58935;54.498;18.544;2022-08-19T05:20:00;100290.60;;;23.50
71205;BMP180;58935;54.498;18.544;2022-08-19T05:22:29;100297.80;;;23.50
71205;BMP180;58935;54.498;18.544;2022-08-19T05:24:58;100297.40;;;23.60
71205;BMP180;58935;54.498;18.544;2022-08-19T05:27:25;100297.60;;;23.62
71205;BMP180;58935;54.498;18.544;2022-08-19T05:29:51;100293.20;;;23.70
71205;BMP180;58935;54.498;18.544;2022-08-19T05:32:16;100291.60;;;23.70
71205;BMP180;58935;54.498;18.544;2022-08-19T05:34:42;100293.80;;;23.80
71205;BMP180;58935;54.498;18.544;2022-08-19T05:37:08;100292.20;;;23.90
71205;BMP180;58935;54.498;18.544;2022-08-19T05:39:37;100288.80;;;23.90
71205;BMP180;58935;54.498;18.544;2022-08-19T05:42:07;100281.00;;;24.00
71205;BMP180;58935;54.498;18.544;2022-08-19T05:44:37;100283.00;;;24.08
71205;BMP180;58935;54.498;18.544;2022-08-19T05:47:06;100290.60;;;24.10
71205;BMP180;58935;54.498;18.544;2022-08-19T05:49:35;100292.00;;;24.20
71205;BMP180;58935;54.498;18.544;2022-08-19T05:52:05;100294.60;;;24.20
71205;BMP180;58935;54.498;18.544;2022-08-19T05:54:31;100295.60;;;24.30
71205;BMP180;58935;54.498;18.544;2022-08-19T05:56:57;100305.60;;;24.34
71205;BMP180;58935;54.498;18.544;2022-08-19T05:59:23;100310.40;;;24.40
71205;BMP180;58935;54.498;18.544;2022-08-19T06:01:51;100306.00;;;24.40
71205;BMP180;58935;54.498;18.544;2022-08-19T06:04:19;100306.80;;;24.40
71205;BMP180;58935;54.498;18.544;2022-08-19T06:06:48;100312.80;;;24.40
71205;BMP180;58935;54.498;18.544;2022-08-19T06:09:14;100314.20;;;24.40
71205;BMP180;58935;54.498;18.544;2022-08-19T06:11:45;100315.60;;;24.40
71205;BMP180;58935;54.498;18.544;2022-08-19T06:14:17;100321.20;;;24.42
71205;BMP180;58935;54.498;18.544;2022-08-19T06:16:44;100321.00;;;24.50
71205;BMP180;58935;54.498;18.544;2022-08-19T06:19:15;100326.40;;;24.50
71205;BMP180;58935;54.498;18.544;2022-08-19T06:21:45;100324.20;;;24.50
71205;BMP180;58935;54.498;18.544;2022-08-19T06:24:14;100322.40;;;24.60
71205;BMP180;58935;54.498;18.544;2022-08-19T06:26:44;100321.20;;;24.64
71205;BMP180;58935;54.498;18.544;2022-08-19T06:29:12;100320.60;;;24.70
71205;BMP180;58935;54.498;18.544;2022-08-19T06:31:43;100320.00;;;24.80
71205;BMP180;58935;54.498;18.544;2022-08-19T06:34:10;100321.00;;;24.80
71205;BMP180;58935;54.498;18.544;2022-08-19T06:36:41;100320.80;;;24.90
71205;BMP180;58935;54.498;18.544;2022-08-19T06:39:14;100323.00;;;24.90
71205;BMP180;58935;54.498;18.544;2022-08-19T06:41:44;100324.40;;;24.90
71205;BMP180;58935;54.498;18.544;2022-08-19T06:44:11;100324.80;;;24.90
71205;BMP180;58935;54.498;18.544;2022-08-19T06:46:38;100326.60;;;24.98
71205;BMP180;58935;54.498;18.544;2022-08-19T06:49:05;100325.20;;;25.00
71205;BMP180;58935;54.498;18.544;2022-08-19T06:51:31;100317.00;;;25.00
71205;BMP180;58935;54.498;18.544;2022-08-19T06:53:58;100309.40;;;25.00
71205;BMP180;58935;54.498;18.544;2022-08-19T06:56:30;100305.80;;;25.02
71205;BMP180;58935;54.498;18.544;2022-08-19T06:59:10;100314.00;;;25.10
71205;BMP180;58935;54.498;18.544;2022-08-19T07:01:40;100309.40;;;25.10
71205;BMP180;58935;54.498;18.544;2022-08-19T07:04:08;100305.00;;;25.18
71205;BMP180;58935;54.498;18.544;2022-08-19T07:06:35;100312.80;;;25.20
71205;BMP180;58935;54.498;18.544;2022-08-19T07:09:00;100312.20;;;25.20
71205;BMP180;58935;54.498;18.544;2022-08-19T07:11:27;100306.00;;;25.22
71205;BMP180;58935;54.498;18.544;2022-08-19T07:13:52;100305.20;;;25.30
71205;BMP180;58935;54.498;18.544;2022-08-19T07:16:19;100305.40;;;25.30
71205;BMP180;58935;54.498;18.544;2022-08-19T07:18:48;100306.80;;;25.36
71205;BMP180;58935;54.498;18.544;2022-08-19T07:21:19;100307.60;;;25.40
71205;BMP180;58935;54.498;18.544;2022-08-19T07:23:45;100308.00;;;25.50
71205;BMP180;58935;54.498;18.544;2022-08-19T07:26:17;100313.40;;;25.50
71205;BMP180;58935;54.498;18.544;2022-08-19T07:28:45;100311.80;;;25.60
71205;BMP180;58935;54.498;18.544;2022-08-19T07:31:14;100310.80;;;25.60
71205;BMP180;58935;54.498;18.544;2022-08-19T07:33:41;100310.40;;;25.70
71205;BMP180;58935;54.498;18.544;2022-08-19T07:36:09;100314.00;;;25.70
71205;BMP180;58935;54.498;18.544;2022-08-19T07:38:38;100321.20;;;25.80
71205;BMP180;58935;54.498;18.544;2022-08-19T07:41:06;100316.20;;;25.80
71205;BMP180;58935;54.498;18.544;2022-08-19T07:43:32;100316.20;;;25.90
71205;BMP180;58935;54.498;18.544;2022-08-19T07:45:58;100314.80;;;25.90
71205;BMP180;58935;54.498;18.544;2022-08-19T07:48:25;100314.60;;;26.00
71205;BMP180;58935;54.498;18.544;2022-08-19T07:50:57;100312.60;;;26.00
71205;BMP180;58935;54.498;18.544;2022-08-19T07:53:24;100309.60;;;26.00
71205;BMP180;58935;54.498;18.544;2022-08-19T07:55:51;100310.60;;;26.10
71205;BMP180;58935;54.498;18.544;2022-08-19T07:58:22;100311.00;;;26.10
71205;BMP180;58935;54.498;18.544;2022-08-19T08:00:50;100305.40;;;26.20
71205;BMP180;58935;54.498;18.544;2022-08-19T08:03:20;100305.60;;;26.20
71205;BMP180;58935;54.498;18.544;2022-08-19T08:06:06;100309.00;;;26.30
71205;BMP180;58935;54.498;18.544;2022-08-19T08:08:35;100306.80;;;26.30
71205;BMP180;58935;54.498;18.544;2022-08-19T08:11:16;100314.80;;;26.32
71205;BMP180;58935;54.498;18.544;2022-08-19T08:13:42;100315.40;;;26.40
71205;BMP180;58935;54.498;18.544;2022-08-19T08:16:08;100317.20;;;26.44
71205;BMP180;58935;54.498;18.544;2022-08-19T08:18:34;100315.20;;;26.50
71205;BMP180;58935;54.498;18.544;2022-08-19T08:21:07;100319.00;;;26.50
71205;BMP180;58935;54.498;18.544;2022-08-19T08:23:33;100319.00;;;26.56
71205;BMP180;58935;54.498;18.544;2022-08-19T08:25:58;100315.60;;;26.60
71205;BMP180;58935;54.498;18.544;2022-08-19T08:28:26;100315.00;;;26.60
71205;BMP180;58935;54.498;18.544;2022-08-19T08:30:52;100309.80;;;26.70
71205;BMP180;58935;54.498;18.544;2022-08-19T08:33:20;100310.00;;;26.70
71205;BMP180;58935;54.498;18.544;2022-08-19T08:35:48;100305.80;;;26.80
71205;BMP180;58935;54.498;18.544;2022-08-19T08:38:14;100309.80;;;26.90
71205;BMP180;58935;54.498;18.544;2022-08-19T08:40:51;100308.00;;;26.94
71205;BMP180;58935;54.498;18.544;2022-08-19T08:43:28;100307.60;;;27.00
71205;BMP180;58935;54.498;18.544;2022-08-19T08:46:12;100309.20;;;27.00
71205;BMP180;58935;54.498;18.544;2022-08-19T08:49:01;100310.20;;;27.06
71205;BMP180;58935;54.498;18.544;2022-08-19T08:51:37;100309.20;;;27.10
71205;BMP180;58935;54.498;18.544;2022-08-19T08:54:08;100311.20;;;27.00
71205;BMP180;58935;54.498;18.544;2022-08-19T08:56:39;100308.60;;;27.00
71205;BMP180;58935;54.498;18.544;2022-08-19T08:59:21;100307.40;;;27.00
71205;BMP180;58935;54.498;18.544;2022-08-19T09:01:48;100309.80;;;27.00
71205;BMP180;58935;54.498;18.544;2022-08-19T09:04:14;100303.60;;;26.90
71205;BMP180;58935;54.498;18.544;2022-08-19T09:09:40;100297.20;;;26.62
71205;BMP180;58935;54.498;18.544;2022-08-19T09:12:33;100299.60;;;26.50
71205;BMP180;58935;54.498;18.544;2022-08-19T09:15:05;100297.00;;;26.50
71205;BMP180;58935;54.498;18.544;2022-08-19T09:17:32;100293.00;;;26.60
71205;BMP180;58935;54.498;18.544;2022-08-19T09:20:05;100291.80;;;26.60
71205;BMP180;58935;54.498;18.544;2022-08-19T09:22:38;100285.60;;;26.52
71205;BMP180;58935;54.498;18.544;2022-08-19T09:25:07;100286.40;;;26.50
71205;BMP180;58935;54.498;18.544;2022-08-19T09:27:36;100288.40;;;26.40
71205;BMP180;58935;54.498;18.544;2022-08-19T09:30:05;100290.00;;;26.42
71205;BMP180;58935;54.498;18.544;2022-08-19T09:32:32;100289.40;;;26.50
71205;BMP180;58935;54.498;18.544;2022-08-19T09:34:57;100289.20;;;26.60
71205;BMP180;58935;54.498;18.544;2022-08-19T09:37:24;100291.40;;;26.60
71205;BMP180;58935;54.498;18.544;2022-08-19T09:39:50;100294.00;;;26.60
71205;BMP180;58935;54.498;18.544;2022-08-19T09:42:16;100299.40;;;26.60
71205;BMP180;58935;54.498;18.544;2022-08-19T09:44:43;100290.20;;;26.50
71205;BMP180;58935;54.498;18.544;2022-08-19T09:47:12;100288.20;;;26.60
71205;BMP180;58935;54.498;18.544;2022-08-19T09:49:39;100284.40;;;26.70
71205;BMP180;58935;54.498;18.544;2022-08-19T09:52:08;100284.40;;;26.80
71205;BMP180;58935;54.498;18.544;2022-08-19T09:54:35;100277.00;;;26.92
71205;BMP180;58935;54.498;18.544;2022-08-19T09:57:01;100274.80;;;27.00
71205;BMP180;58935;54.498;18.544;2022-08-19T09:59:28;100277.80;;;27.10
71205;BMP180;58935;54.498;18.544;2022-08-19T10:01:53;100278.00;;;27.06
71205;BMP180;58935;54.498;18.544;2022-08-19T10:04:19;100281.00;;;27.10
71205;BMP180;58935;54.498;18.544;2022-08-19T10:06:48;100281.00;;;27.20
71205;BMP180;58935;54.498;18.544;2022-08-19T10:09:17;100277.40;;;27.30
71205;BMP180;58935;54.498;18.544;2022-08-19T10:11:45;100278.60;;;27.20
71205;BMP180;58935;54.498;18.544;2022-08-19T10:14:15;100276.80;;;27.18
71205;BMP180;58935;54.498;18.544;2022-08-19T10:16:42;100280.20;;;27.10
71205;BMP180;58935;54.498;18.544;2022-08-19T10:19:09;100275.80;;;27.10
71205;BMP180;58935;54.498;18.544;2022-08-19T10:21:35;100271.60;;;27.00
71205;BMP180;58935;54.498;18.544;2022-08-19T10:24:04;100267.20;;;27.00
71205;BMP180;58935;54.498;18.544;2022-08-19T10:26:35;100263.00;;;27.00
71205;BMP180;58935;54.498;18.544;2022-08-19T10:29:03;100268.00;;;27.10
71205;BMP180;58935;54.498;18.544;2022-08-19T10:31:32;100264.40;;;27.10
71205;BMP180;58935;54.498;18.544;2022-08-19T10:34:00;100261.80;;;27.10
71205;BMP180;58935;54.498;18.544;2022-08-19T10:36:31;100253.00;;;27.10
71205;BMP180;58935;54.498;18.544;2022-08-19T10:39:00;100248.40;;;27.10
71205;BMP180;58935;54.498;18.544;2022-08-19T10:41:31;100249.00;;;27.20
71205;BMP180;58935;54.498;18.544;2022-08-19T10:44:01;100245.20;;;27.18
71205;BMP180;58935;54.498;18.544;2022-08-19T10:46:28;100246.20;;;27.12
71205;BMP180;58935;54.498;18.544;2022-08-19T10:48:56;100249.20;;;27.20
71205;BMP180;58935;54.498;18.544;2022-08-19T10:51:22;100245.20;;;27.20
71205;BMP180;58935;54.498;18.544;2022-08-19T10:53:51;100242.40;;;27.24
71205;BMP180;58935;54.498;18.544;2022-08-19T10:56:18;100239.00;;;27.30
71205;BMP180;58935;54.498;18.544;2022-08-19T10:58:47;100241.00;;;27.32
71205;BMP180;58935;54.498;18.544;2022-08-19T11:01:13;100236.00;;;27.40
71205;BMP180;58935;54.498;18.544;2022-08-19T11:03:39;100235.60;;;27.48
71205;BMP180;58935;54.498;18.544;2022-08-19T11:06:08;100228.00;;;27.60
71205;BMP180;58935;54.498;18.544;2022-08-19T11:08:36;100223.40;;;27.70
71205;BMP180;58935;54.498;18.544;2022-08-19T11:11:04;100214.20;;;27.80
71205;BMP180;58935;54.498;18.544;2022-08-19T11:13:33;100221.00;;;27.90
71205;BMP180;58935;54.498;18.544;2022-08-19T11:16:08;100220.40;;;28.10
71205;BMP180;58935;54.498;18.544;2022-08-19T11:18:37;100214.80;;;28.02
71205;BMP180;58935;54.498;18.544;2022-08-19T11:21:08;100212.20;;;28.00
71205;BMP180;58935;54.498;18.544;2022-08-19T11:23:34;100203.40;;;27.90
71205;BMP180;58935;54.498;18.544;2022-08-19T11:26:00;100208.20;;;27.90
71205;BMP180;58935;54.498;18.544;2022-08-19T11:28:26;100201.60;;;27.80
71205;BMP180;58935;54.498;18.544;2022-08-19T11:30:52;100191.00;;;27.70
71205;BMP180;58935;54.498;18.544;2022-08-19T11:33:17;100189.60;;;27.70
71205;BMP180;58935;54.498;18.544;2022-08-19T11:35:44;100195.00;;;27.70
71205;BMP180;58935;54.498;18.544;2022-08-19T11:38:10;100197.00;;;27.70
71205;BMP180;58935;54.498;18.544;2022-08-19T11:40:37;100190.80;;;27.66
71205;BMP180;58935;54.498;18.544;2022-08-19T11:43:03;100193.60;;;27.60
71205;BMP180;58935;54.498;18.544;2022-08-19T11:45:30;100193.00;;;27.58
71205;BMP180;58935;54.498;18.544;2022-08-19T11:47:56;100188.60;;;27.50
71205;BMP180;58935;54.498;18.544;2022-08-19T11:50:23;100187.40;;;27.56
71205;BMP180;58935;54.498;18.544;2022-08-19T11:52:50;100187.00;;;27.60
71205;BMP180;58935;54.498;18.544;2022-08-19T11:55:19;100190.40;;;27.60
71205;BMP180;58935;54.498;18.544;2022-08-19T11:57:44;100182.20;;;27.70
71205;BMP180;58935;54.498;18.544;2022-08-19T12:00:12;100180.40;;;27.72
71205;BMP180;58935;54.498;18.544;2022-08-19T12:02:39;100169.20;;;27.80
71205;BMP180;58935;54.498;18.544;2022-08-19T12:05:05;100161.20;;;27.80
71205;BMP180;58935;54.498;18.544;2022-08-19T12:07:31;100161.80;;;27.80
71205;BMP180;58935;54.498;18.544;2022-08-19T12:09:59;100167.00;;;27.80
71205;BMP180;58935;54.498;18.544;2022-08-19T12:12:26;100160.20;;;27.80
71205;BMP180;58935;54.498;18.544;2022-08-19T12:14:52;100165.00;;;27.88
71205;BMP180;58935;54.498;18.544;2022-08-19T12:17:28;100158.00;;;27.90
71205;BMP180;58935;54.498;18.544;2022-08-19T12:19:54;100156.20;;;28.00
71205;BMP180;58935;54.498;18.544;2022-08-19T12:22:19;100151.00;;;28.06
71205;BMP180;58935;54.498;18.544;2022-08-19T12:24:46;100151.60;;;28.08
71205;BMP180;58935;54.498;18.544;2022-08-19T12:27:11;100149.60;;;28.10
71205;BMP180;58935;54.498;18.544;2022-08-19T12:29:37;100141.40;;;28.10
71205;BMP180;58935;54.498;18.544;2022-08-19T12:32:03;100147.20;;;28.10
71205;BMP180;58935;54.498;18.544;2022-08-19T12:34:31;100146.20;;;28.06
71205;BMP180;58935;54.498;18.544;2022-08-19T12:37:01;100146.60;;;28.00
71205;BMP180;58935;54.498;18.544;2022-08-19T12:39:27;100145.00;;;28.00
71205;BMP180;58935;54.498;18.544;2022-08-19T12:41:52;100148.80;;;28.02
71205;BMP180;58935;54.498;18.544;2022-08-19T12:44:19;100147.60;;;28.00
71205;BMP180;58935;54.498;18.544;2022-08-19T12:46:44;100148.60;;;28.00
71205;BMP180;58935;54.498;18.544;2022-08-19T12:49:09;100140.40;;;28.06
71205;BMP180;58935;54.498;18.544;2022-08-19T12:51:35;100136.20;;;28.08
71205;BMP180;58935;54.498;18.544;2022-08-19T12:54:01;100134.80;;;28.20
71205;BMP180;58935;54.498;18.544;2022-08-19T12:56:27;100129.20;;;28.30
71205;BMP180;58935;54.498;18.544;2022-08-19T12:58:52;100127.60;;;28.40
71205;BMP180;58935;54.498;18.544;2022-08-19T13:01:18;100125.80;;;28.34
71205;BMP180;58935;54.498;18.544;2022-08-19T13:03:46;100127.80;;;28.30
71205;BMP180;58935;54.498;18.544;2022-08-19T13:06:13;100124.80;;;28.40
71205;BMP180;58935;54.498;18.544;2022-08-19T13:08:39;100119.20;;;28.50
71205;BMP180;58935;54.498;18.544;2022-08-19T13:11:14;100115.20;;;28.60
71205;BMP180;58935;54.498;18.544;2022-08-19T13:13:44;100113.40;;;28.60
71205;BMP180;58935;54.498;18.544;2022-08-19T13:16:13;100109.20;;;28.50
71205;BMP180;58935;54.498;18.544;2022-08-19T13:18:40;100103.60;;;28.40
71205;BMP180;58935;54.498;18.544;2022-08-19T13:21:09;100103.00;;;28.30
71205;BMP180;58935;54.498;18.544;2022-08-19T13:23:36;100109.40;;;28.20
71205;BMP180;58935;54.498;18.544;2022-08-19T13:26:06;100109.20;;;28.10
71205;BMP180;58935;54.498;18.544;2022-08-19T13:28:34;100101.40;;;28.00
71205;BMP180;58935;54.498;18.544;2022-08-19T13:31:03;100102.40;;;28.10
71205;BMP180;58935;54.498;18.544;2022-08-19T13:33:32;100103.60;;;28.28
71205;BMP180;58935;54.498;18.544;2022-08-19T13:36:00;100093.40;;;28.50
71205;BMP180;58935;54.498;18.544;2022-08-19T13:38:27;100098.80;;;28.50
71205;BMP180;58935;54.498;18.544;2022-08-19T13:40:55;100098.20;;;28.50
71205;BMP180;58935;54.498;18.544;2022-08-19T13:43:25;100100.60;;;28.50
71205;BMP180;58935;54.498;18.544;2022-08-19T13:45:54;100090.00;;;28.40
71205;BMP180;58935;54.498;18.544;2022-08-19T13:48:22;100088.20;;;28.40
71205;BMP180;58935;54.498;18.544;2022-08-19T13:50:48;100088.00;;;28.30
71205;BMP180;58935;54.498;18.544;2022-08-19T13:53:15;100083.80;;;28.30